createdAt,value
2022-12-25T00:01:55.508Z,5.72
2022-12-25T00:04:28.629Z,5.73
2022-12-25T00:07:01.720Z,5.73
2022-12-25T00:09:34.509Z,5.71
2022-12-25T00:12:07.685Z,5.66
2022-12-25T00:14:40.396Z,5.67
2022-12-25T00:17:12.932Z,5.65
2022-12-25T00:19:45.739Z,5.66
2022-12-25T00:22:18.173Z,5.61
2022-12-25T00:24:52.863Z,5.62
2022-12-25T00:27:25.693Z,5.55
2022-12-25T00:29:58.504Z,5.54
2022-12-25T00:32:31.455Z,5.56
2022-12-25T00:35:04.206Z,5.60
2022-12-25T00:37:37.096Z,5.58
2022-12-25T00:40:11.576Z,5.48
2022-12-25T00:42:43.985Z,5.42
2022-12-25T00:45:16.627Z,5.41
2022-12-25T00:47:49.954Z,5.37
2022-12-25T00:50:22.863Z,5.37
2022-12-25T00:52:59.349Z,5.29
2022-12-25T00:55:34.397Z,5.25
2022-12-25T00:58:07.122Z,5.30
2022-12-25T01:00:40.804Z,5.28
2022-12-25T01:03:13.397Z,5.27
2022-12-25T01:05:46.039Z,5.27
2022-12-25T01:08:18.482Z,5.26
2022-12-25T01:10:57.809Z,5.19
2022-12-25T01:13:32.634Z,5.17
2022-12-25T01:16:09.877Z,5.11
2022-12-25T01:18:59.124Z,5.09
2022-12-25T01:21:33.362Z,5.08
2022-12-25T01:24:12.632Z,5.04
2022-12-25T01:26:45.232Z,5.05
2022-12-25T01:29:18.125Z,5.00
2022-12-25T01:31:51.320Z,4.99
2022-12-25T01:34:23.902Z,4.95
2022-12-25T01:36:56.653Z,4.89
2022-12-25T01:39:29.261Z,4.80
2022-12-25T01:42:02.649Z,4.75
2022-12-25T01:45:24.455Z,4.73
2022-12-25T01:47:57.491Z,4.74
2022-12-25T01:50:31.131Z,4.73
2022-12-25T01:53:04.650Z,4.68
2022-12-25T01:55:39.480Z,4.64
2022-12-25T01:58:12.257Z,4.65
2022-12-25T02:00:44.929Z,4.66
2022-12-25T02:03:19.559Z,4.58
2022-12-25T02:05:52.739Z,4.57
2022-12-25T02:08:26.113Z,4.63
2022-12-25T02:11:00.530Z,4.63
2022-12-25T02:13:36.182Z,4.57
2022-12-25T02:16:16.299Z,4.59
2022-12-25T02:18:53.832Z,4.56
2022-12-25T02:21:54.094Z,4.55
2022-12-25T02:24:50.009Z,4.57
2022-12-25T02:27:38.792Z,4.68
2022-12-25T02:30:13.789Z,4.69
2022-12-25T02:32:52.934Z,4.70
2022-12-25T02:35:31.381Z,4.79
2022-12-25T02:38:08.033Z,4.81
2022-12-25T02:40:46.783Z,4.79
2022-12-25T02:43:40.833Z,4.84
2022-12-25T02:46:33.320Z,4.86
2022-12-25T02:49:28.586Z,4.85
2022-12-25T02:52:21.439Z,4.96
2022-12-25T02:55:16.160Z,4.96
2022-12-25T02:58:10.786Z,4.98
2022-12-25T03:01:04.632Z,5.04
2022-12-25T03:03:59.348Z,5.08
2022-12-25T03:06:47.023Z,5.03
2022-12-25T03:09:40.974Z,5.07
2022-12-25T03:12:20.176Z,5.04
2022-12-25T03:15:10.343Z,5.06
2022-12-25T03:17:43.576Z,5.03
2022-12-25T03:20:33.609Z,5.08
2022-12-25T03:23:24.893Z,5.10
2022-12-25T03:26:16.320Z,5.14
2022-12-25T03:28:48.953Z,5.19
2022-12-25T03:31:28.434Z,5.21
2022-12-25T03:34:37.062Z,5.22
2022-12-25T03:37:38.847Z,5.23
2022-12-25T03:40:36.224Z,5.26
2022-12-25T03:43:47.559Z,5.25
2022-12-25T03:46:40.268Z,5.29
2022-12-25T03:49:36.471Z,5.29
2022-12-25T03:52:32.496Z,5.24
2022-12-25T03:55:27.461Z,5.27
2022-12-25T03:58:17.355Z,5.24
2022-12-25T04:01:08.559Z,5.23
2022-12-25T04:03:58.118Z,5.25
2022-12-25T04:06:48.018Z,5.28
2022-12-25T04:09:37.577Z,5.33
2022-12-25T04:12:28.419Z,5.33
2022-12-25T04:15:18.227Z,5.32
2022-12-25T04:18:10.385Z,5.25
2022-12-25T04:21:00.642Z,5.22
2022-12-25T04:23:50.453Z,5.29
2022-12-25T04:26:40.495Z,5.31
2022-12-25T04:29:30.452Z,5.34
2022-12-25T04:32:20.097Z,5.37
2022-12-25T04:35:11.606Z,5.40
2022-12-25T04:37:44.002Z,5.40
2022-12-25T04:40:18.905Z,5.40
2022-12-25T04:42:53.552Z,5.41
2022-12-25T04:45:26.269Z,5.38
2022-12-25T04:48:00.750Z,5.40
2022-12-25T04:50:33.326Z,5.39
2022-12-25T04:53:05.895Z,5.43
2022-12-25T04:55:39.047Z,5.48
2022-12-25T04:58:10.375Z,5.41
2022-12-25T05:00:43.592Z,5.41
2022-12-25T05:03:16.271Z,5.46
2022-12-25T05:05:50.255Z,5.49
2022-12-25T05:08:21.089Z,5.42
2022-12-25T05:10:53.776Z,5.36
2022-12-25T05:13:26.557Z,5.30
2022-12-25T05:15:59.455Z,5.30
2022-12-25T05:18:32.234Z,5.38
2022-12-25T05:21:05.726Z,5.41
2022-12-25T05:23:38.666Z,5.36
2022-12-25T05:26:12.056Z,5.40
2022-12-25T05:28:45.065Z,5.40
2022-12-25T05:31:18.046Z,5.43
2022-12-25T05:33:53.437Z,5.43
2022-12-25T05:36:26.163Z,5.42
2022-12-25T05:38:59.110Z,5.46
2022-12-25T05:41:34.554Z,5.43
2022-12-25T05:44:08.796Z,5.45
2022-12-25T05:46:41.416Z,5.40
2022-12-25T05:49:14.085Z,5.39
2022-12-25T05:51:46.678Z,5.43
2022-12-25T05:54:19.270Z,5.40
2022-12-25T05:56:51.874Z,5.36
2022-12-25T05:59:25.349Z,5.32
2022-12-25T06:01:58.276Z,5.35
2022-12-25T06:04:31.098Z,5.36
2022-12-25T06:07:03.815Z,5.41
2022-12-25T06:09:36.338Z,5.41
2022-12-25T06:12:09.784Z,5.37
2022-12-25T06:14:42.418Z,5.33
2022-12-25T06:17:15.261Z,5.35
2022-12-25T06:19:47.719Z,5.31
2022-12-25T06:22:20.493Z,5.26
2022-12-25T06:24:53.235Z,5.25
2022-12-25T06:27:26.180Z,5.26
2022-12-25T06:29:58.803Z,5.24
2022-12-25T06:32:31.753Z,5.21
2022-12-25T06:35:04.726Z,5.24
2022-12-25T06:37:38.205Z,5.23
2022-12-25T06:40:14.547Z,5.24
2022-12-25T06:42:47.304Z,5.29
2022-12-25T06:45:20.065Z,5.31
2022-12-25T06:47:52.680Z,5.30
2022-12-25T06:50:25.141Z,5.34
2022-12-25T06:52:57.993Z,5.37
2022-12-25T06:55:30.655Z,5.38
2022-12-25T06:58:03.284Z,5.38
2022-12-25T07:00:35.698Z,5.36
2022-12-25T07:03:12.287Z,5.36
2022-12-25T07:05:47.504Z,5.32
2022-12-25T07:08:20.195Z,5.29
2022-12-25T07:10:52.909Z,5.25
2022-12-25T07:13:26.239Z,5.27
2022-12-25T07:16:01.199Z,5.25
2022-12-25T07:18:34.721Z,5.29
2022-12-25T07:21:14.272Z,5.29
2022-12-25T07:23:49.005Z,5.34
2022-12-25T07:26:22.294Z,5.40
2022-12-25T07:28:54.775Z,5.49
2022-12-25T07:31:27.356Z,5.56
2022-12-25T07:33:59.969Z,5.65
2022-12-25T07:36:32.696Z,5.96
2022-12-25T07:39:05.576Z,6.01
2022-12-25T07:41:37.983Z,5.90
2022-12-25T07:44:20.165Z,5.86
2022-12-25T07:46:52.893Z,5.78
2022-12-25T07:49:26.498Z,5.78
2022-12-25T07:51:59.074Z,5.76
2022-12-25T07:54:31.646Z,5.76
2022-12-25T07:57:04.134Z,5.75
2022-12-25T07:59:36.586Z,5.76
2022-12-25T08:02:09.681Z,5.78
2022-12-25T08:04:43.652Z,5.80
2022-12-25T08:07:16.381Z,5.81
2022-12-25T08:09:48.953Z,5.81
2022-12-25T08:12:21.773Z,5.84
2022-12-25T08:14:54.754Z,5.84
2022-12-25T08:17:27.382Z,5.91
2022-12-25T08:20:00.096Z,5.95
2022-12-25T08:22:34.215Z,6.00
2022-12-25T08:25:07.128Z,6.00
2022-12-25T08:27:40.256Z,6.01
2022-12-25T08:30:14.514Z,6.06
2022-12-25T08:32:46.985Z,6.06
2022-12-25T08:35:19.854Z,6.10
2022-12-25T08:37:52.337Z,6.11
2022-12-25T08:40:26.480Z,6.18
2022-12-25T08:43:01.101Z,6.29
2022-12-25T08:45:35.343Z,6.27
2022-12-25T08:48:08.308Z,6.31
2022-12-25T08:50:40.948Z,6.35
2022-12-25T08:53:13.548Z,6.41
2022-12-25T08:55:46.059Z,6.45
2022-12-25T08:58:19.302Z,6.54
2022-12-25T09:00:52.607Z,6.49
2022-12-25T09:03:26.094Z,6.51
2022-12-25T09:06:03.665Z,6.55
2022-12-25T09:08:38.890Z,6.53
2022-12-25T09:11:16.661Z,6.62
2022-12-25T09:13:49.400Z,6.65
2022-12-25T09:16:24.171Z,6.65
2022-12-25T09:18:58.077Z,6.62
2022-12-25T09:21:31.063Z,6.61
2022-12-25T09:24:03.570Z,6.52
2022-12-25T09:26:36.229Z,6.47
2022-12-25T09:29:08.701Z,6.40
2022-12-25T09:31:41.257Z,6.42
2022-12-25T09:34:17.174Z,6.47
2022-12-25T09:36:51.399Z,6.45
2022-12-25T09:39:24.963Z,6.44
2022-12-25T09:42:03.555Z,6.39
2022-12-25T09:44:40.581Z,6.42
2022-12-25T09:47:17.615Z,6.54
2022-12-25T09:49:54.839Z,6.62
2022-12-25T09:52:32.165Z,6.70
2022-12-25T09:55:18.088Z,6.75
2022-12-25T09:57:56.531Z,6.83
2022-12-25T10:00:35.827Z,6.88
2022-12-25T10:03:36.447Z,6.99
2022-12-25T10:06:18.601Z,6.99
2022-12-25T10:09:13.674Z,7.00
2022-12-25T10:12:01.513Z,7.00
2022-12-25T10:14:40.944Z,7.04
2022-12-25T10:17:31.997Z,7.02
2022-12-25T10:20:14.092Z,7.03
2022-12-25T10:22:50.345Z,7.13
2022-12-25T10:25:25.171Z,7.23
2022-12-25T10:28:03.850Z,7.18
2022-12-25T10:30:36.494Z,7.18
2022-12-25T10:33:16.820Z,7.12
2022-12-25T10:35:50.454Z,7.14
2022-12-25T10:38:24.171Z,7.21
2022-12-25T10:41:02.609Z,7.32
2022-12-25T10:43:42.662Z,7.29
2022-12-25T10:46:17.291Z,7.48
2022-12-25T10:48:54.001Z,7.66
2022-12-25T10:51:38.463Z,7.81
2022-12-25T10:54:24.348Z,7.82
2022-12-25T10:57:01.681Z,7.90
2022-12-25T10:59:43.446Z,7.97
2022-12-25T11:02:22.008Z,8.02
2022-12-25T11:05:01.815Z,8.28
2022-12-25T11:07:47.647Z,8.43
2022-12-25T11:10:26.291Z,8.47
2022-12-25T11:13:00.007Z,8.51
2022-12-25T11:15:44.848Z,8.46
2022-12-25T11:18:25.110Z,8.49
2022-12-25T11:21:04.606Z,8.60
2022-12-25T11:23:37.126Z,8.70
2022-12-25T11:26:13.154Z,8.66
2022-12-25T11:28:48.184Z,8.69
2022-12-25T11:31:23.361Z,8.81
2022-12-25T11:34:00.826Z,8.91
2022-12-25T11:36:44.942Z,8.95
2022-12-25T11:39:25.712Z,9.06
2022-12-25T11:42:02.140Z,9.01
2022-12-25T11:44:45.498Z,8.90
2022-12-25T11:47:23.545Z,8.90
2022-12-25T11:50:02.064Z,8.88
2022-12-25T11:52:39.443Z,8.72
2022-12-25T11:55:23.901Z,8.70
2022-12-25T11:58:01.797Z,8.69
2022-12-25T12:00:37.527Z,8.61
2022-12-25T12:03:18.999Z,8.58
2022-12-25T12:05:57.252Z,8.57
2022-12-25T12:08:30.163Z,8.60
2022-12-25T12:11:20.902Z,8.58
2022-12-25T12:14:08.789Z,8.52
2022-12-25T12:16:41.594Z,8.51
2022-12-25T12:19:29.347Z,8.46
2022-12-25T12:22:05.753Z,8.43
2022-12-25T12:24:43.312Z,8.40
2022-12-25T12:27:27.301Z,8.38
2022-12-25T12:30:01.700Z,8.37
2022-12-25T12:32:41.404Z,8.37
2022-12-25T12:35:21.201Z,8.28
2022-12-25T12:37:58.278Z,8.32
2022-12-25T12:40:36.102Z,8.32
2022-12-25T12:43:25.094Z,8.23
2022-12-25T12:46:03.931Z,8.21
2022-12-25T12:48:43.045Z,8.19
2022-12-25T12:51:28.036Z,8.17
2022-12-25T12:54:20.867Z,8.21
2022-12-25T12:57:05.118Z,8.24
2022-12-25T12:59:43.778Z,8.20
2022-12-25T13:02:42.541Z,8.13
2022-12-25T13:05:32.237Z,8.20
2022-12-25T13:08:23.003Z,8.21
2022-12-25T13:11:05.556Z,8.21
2022-12-25T13:13:42.515Z,8.22
2022-12-25T13:16:26.483Z,8.18
2022-12-25T13:19:00.116Z,8.10
2022-12-25T13:21:34.478Z,8.04
2022-12-25T13:24:10.898Z,8.07
2022-12-25T13:26:43.908Z,8.04
2022-12-25T13:29:30.391Z,8.01
2022-12-25T13:32:04.253Z,7.94
2022-12-25T13:34:39.367Z,7.95
2022-12-25T13:37:15.540Z,7.91
2022-12-25T13:39:55.616Z,7.93
2022-12-25T13:42:33.098Z,7.86
2022-12-25T13:45:07.880Z,7.69
2022-12-25T13:47:43.525Z,7.51
2022-12-25T13:50:23.518Z,7.38
2022-12-25T13:52:59.511Z,7.33
2022-12-25T13:55:32.635Z,7.27
2022-12-25T13:58:07.612Z,7.15
2022-12-25T14:00:48.943Z,7.06
2022-12-25T14:03:24.756Z,7.01
2022-12-25T14:06:02.251Z,6.97
2022-12-25T14:08:37.154Z,6.87
2022-12-25T14:11:11.142Z,6.73
2022-12-25T14:13:46.101Z,6.49
2022-12-25T14:16:23.081Z,6.41
2022-12-25T14:18:57.588Z,6.38
2022-12-25T14:21:36.881Z,6.45
2022-12-25T14:24:17.705Z,6.44
2022-12-25T14:26:58.361Z,6.39
2022-12-25T14:29:38.614Z,6.36
2022-12-25T14:32:17.260Z,6.12
2022-12-25T14:34:53.136Z,5.97
2022-12-25T14:37:29.776Z,5.94
2022-12-25T14:40:06.808Z,5.87
2022-12-25T14:42:39.872Z,5.83
2022-12-25T14:45:30.991Z,5.81
2022-12-25T14:48:24.768Z,5.77
2022-12-25T14:51:04.319Z,5.63
2022-12-25T14:53:40.720Z,5.48
2022-12-25T14:56:21.737Z,5.43
2022-12-25T14:58:56.686Z,5.53
2022-12-25T15:01:34.052Z,5.45
2022-12-25T15:04:18.388Z,5.42
2022-12-25T15:07:00.094Z,5.34
2022-12-25T15:09:36.721Z,5.33
2022-12-25T15:12:12.012Z,5.36
2022-12-25T15:14:46.225Z,5.32
2022-12-25T15:17:26.717Z,5.26
2022-12-25T15:20:04.401Z,5.28
2022-12-25T15:23:02.474Z,5.31
2022-12-25T15:25:32.588Z,5.28
2022-12-25T15:28:12.659Z,5.26
2022-12-25T15:30:47.192Z,5.19
2022-12-25T15:33:21.397Z,5.00
2022-12-25T15:35:54.296Z,4.84
2022-12-25T15:38:28.358Z,4.70
2022-12-25T15:41:04.813Z,4.59
2022-12-25T15:43:40.773Z,4.61
2022-12-25T15:46:15.198Z,4.62
2022-12-25T15:48:50.457Z,4.70
2022-12-25T15:51:23.654Z,4.71
2022-12-25T15:53:56.682Z,4.68
2022-12-25T15:56:31.480Z,4.72
2022-12-25T15:59:04.366Z,4.76
2022-12-25T16:01:38.932Z,4.77
2022-12-25T16:04:11.888Z,4.67
2022-12-25T16:06:47.121Z,4.64
2022-12-25T16:09:21.808Z,4.69
2022-12-25T16:11:55.084Z,4.61
2022-12-25T16:14:26.272Z,4.57
2022-12-25T16:16:58.868Z,4.39
2022-12-25T16:19:31.438Z,4.32
2022-12-25T16:22:04.096Z,4.13
2022-12-25T16:24:36.593Z,3.88
2022-12-25T16:27:09.436Z,3.93
2022-12-25T16:29:42.393Z,3.97
2022-12-25T16:32:15.824Z,3.98
2022-12-25T16:34:46.699Z,4.02
2022-12-25T16:37:19.298Z,4.07
2022-12-25T16:39:51.964Z,4.19
2022-12-25T16:42:24.576Z,4.14
2022-12-25T16:44:57.218Z,4.14
2022-12-25T16:47:29.773Z,4.10
2022-12-25T16:50:06.136Z,4.11
2022-12-25T16:52:39.418Z,4.16
2022-12-25T16:55:14.155Z,4.21
2022-12-25T16:57:51.647Z,4.25
2022-12-25T17:00:25.347Z,4.27
2022-12-25T17:02:58.837Z,4.13
2022-12-25T17:05:34.271Z,4.11
2022-12-25T17:08:07.136Z,4.08
2022-12-25T17:10:41.640Z,3.97
2022-12-25T17:13:14.304Z,3.96
2022-12-25T17:15:50.625Z,3.94
2022-12-25T17:18:26.128Z,4.00
2022-12-25T17:20:59.116Z,4.06
2022-12-25T17:23:33.097Z,4.09
2022-12-25T17:26:06.425Z,4.08
2022-12-25T17:28:38.952Z,4.16
2022-12-25T17:31:14.568Z,4.13
2022-12-25T17:33:47.614Z,4.07
2022-12-25T17:36:22.755Z,4.06
2022-12-25T17:38:55.313Z,4.08
2022-12-25T17:41:28.243Z,4.13
2022-12-25T17:44:00.756Z,4.13
2022-12-25T17:46:36.024Z,4.05
2022-12-25T17:49:09.047Z,4.09
2022-12-25T17:51:41.815Z,4.10
2022-12-25T17:54:14.782Z,4.02
2022-12-25T17:56:51.017Z,3.99
2022-12-25T17:59:28.731Z,3.89
2022-12-25T18:02:01.527Z,3.81
2022-12-25T18:04:34.352Z,3.81
2022-12-25T18:07:06.845Z,3.78
2022-12-25T18:09:39.982Z,3.72
2022-12-25T18:12:14.137Z,3.74
2022-12-25T18:14:46.746Z,3.82
2022-12-25T18:17:22.404Z,3.87
2022-12-25T18:19:56.541Z,3.88
2022-12-25T18:22:32.414Z,3.99
2022-12-25T18:25:05.186Z,4.10
2022-12-25T18:27:37.860Z,4.14
2022-12-25T18:30:14.503Z,4.08
2022-12-25T18:32:51.401Z,4.04
2022-12-25T18:35:32.187Z,4.05
2022-12-25T18:38:07.577Z,4.01
2022-12-25T18:40:43.844Z,3.95
2022-12-25T18:43:21.365Z,3.79
2022-12-25T18:46:19.508Z,3.85
2022-12-25T18:48:56.035Z,3.96
2022-12-25T18:51:36.551Z,4.00
2022-12-25T18:54:18.337Z,3.91
2022-12-25T18:56:55.295Z,3.85
2022-12-25T18:59:34.319Z,3.80
2022-12-25T19:02:09.812Z,3.69
2022-12-25T19:04:45.273Z,3.65
2022-12-25T19:07:21.527Z,3.66
2022-12-25T19:09:58.789Z,3.62
2022-12-25T19:12:34.788Z,3.63
2022-12-25T19:15:12.867Z,3.60
2022-12-25T19:17:50.397Z,3.59
2022-12-25T19:20:29.160Z,3.52
2022-12-25T19:23:08.094Z,3.49
2022-12-25T19:25:46.043Z,3.50
2022-12-25T19:28:22.102Z,3.49
2022-12-25T19:31:01.305Z,3.48
2022-12-25T19:33:39.686Z,3.43
2022-12-25T19:36:16.032Z,3.43
2022-12-25T19:38:48.821Z,3.44
2022-12-25T19:41:25.655Z,3.42
2022-12-25T19:44:00.272Z,3.40
2022-12-25T19:46:42.538Z,3.27
2022-12-25T19:49:22.170Z,3.18
2022-12-25T19:51:59.928Z,3.11
2022-12-25T19:54:38.022Z,3.16
2022-12-25T19:57:14.294Z,3.24
2022-12-25T19:59:50.488Z,3.23
2022-12-25T20:02:26.814Z,3.26
2022-12-25T20:05:05.045Z,3.22
2022-12-25T20:07:45.597Z,3.13
2022-12-25T20:10:27.952Z,3.18
2022-12-25T20:13:07.444Z,3.23
2022-12-25T20:15:48.250Z,3.05
2022-12-25T20:18:30.070Z,3.04
2022-12-25T20:21:22.032Z,3.14
2022-12-25T20:24:07.743Z,3.19
2022-12-25T20:26:49.130Z,3.18
2022-12-25T20:29:32.326Z,3.25
2022-12-25T20:32:08.443Z,3.28
2022-12-25T20:34:43.849Z,3.21
2022-12-25T20:37:24.809Z,3.28
2022-12-25T20:40:00.887Z,3.27
2022-12-25T20:42:36.459Z,3.32
2022-12-25T20:45:15.228Z,3.38
2022-12-25T20:47:51.518Z,3.45
2022-12-25T20:50:31.648Z,3.45
2022-12-25T20:53:07.495Z,3.43
2022-12-25T20:55:50.834Z,3.42
2022-12-25T20:58:27.882Z,3.43
2022-12-25T21:01:10.169Z,3.38
2022-12-25T21:03:48.629Z,3.29
2022-12-25T21:06:25.740Z,3.39
2022-12-25T21:09:03.196Z,3.43
2022-12-25T21:11:40.246Z,3.28
2022-12-25T21:14:16.478Z,3.28
2022-12-25T21:16:52.366Z,3.13
2022-12-25T21:19:28.745Z,3.08
2022-12-25T21:22:13.591Z,3.16
2022-12-25T21:24:57.393Z,3.24
2022-12-25T21:27:35.075Z,3.34
2022-12-25T21:30:16.301Z,3.33
2022-12-25T21:33:11.730Z,3.40
2022-12-25T21:35:56.052Z,3.34
2022-12-25T21:38:35.893Z,3.27
2022-12-25T21:41:18.050Z,3.25
2022-12-25T21:43:54.644Z,3.28
2022-12-25T21:46:32.156Z,3.29
2022-12-25T21:49:08.233Z,3.33
2022-12-25T21:52:00.126Z,3.31
2022-12-25T21:54:35.095Z,3.28
2022-12-25T21:57:11.415Z,3.21
2022-12-25T21:59:47.315Z,3.18
2022-12-25T22:02:23.210Z,3.17
2022-12-25T22:05:02.386Z,3.08
2022-12-25T22:07:39.506Z,3.13
2022-12-25T22:10:19.053Z,3.16
2022-12-25T22:13:12.216Z,3.12
2022-12-25T22:16:06.479Z,3.05
2022-12-25T22:18:59.417Z,3.06
2022-12-25T22:21:35.487Z,3.11
2022-12-25T22:24:13.704Z,3.14
2022-12-25T22:26:50.955Z,3.02
2022-12-25T22:29:31.029Z,3.05
2022-12-25T22:32:06.785Z,3.03
2022-12-25T22:34:42.329Z,3.15
2022-12-25T22:37:21.069Z,3.12
2022-12-25T22:39:57.147Z,3.03
2022-12-25T22:42:32.560Z,2.88
2022-12-25T22:45:11.139Z,2.96
2022-12-25T22:47:47.234Z,2.92
2022-12-25T22:50:23.232Z,2.85
2022-12-25T22:52:58.650Z,2.78
2022-12-25T22:55:34.933Z,2.75
2022-12-25T22:58:13.155Z,2.77
2022-12-25T23:00:48.960Z,2.73
2022-12-25T23:03:24.457Z,2.81
2022-12-25T23:06:03.081Z,2.87
2022-12-25T23:08:39.237Z,2.95
2022-12-25T23:11:15.733Z,2.98
2022-12-25T23:14:07.933Z,3.09
2022-12-25T23:16:43.469Z,3.08
2022-12-25T23:19:34.674Z,3.08
2022-12-25T23:22:29.179Z,3.07
2022-12-25T23:25:22.895Z,3.04
2022-12-25T23:27:55.928Z,3.09
2022-12-25T23:30:28.716Z,3.15
2022-12-25T23:33:01.584Z,3.12
2022-12-25T23:35:34.346Z,3.20
2022-12-25T23:38:06.809Z,3.18
2022-12-25T23:40:39.391Z,3.18
2022-12-25T23:43:12.200Z,3.15
2022-12-25T23:45:44.764Z,3.20
2022-12-25T23:48:17.341Z,3.27
2022-12-25T23:50:50.124Z,3.37
2022-12-25T23:53:24.254Z,3.39
2022-12-25T23:55:58.031Z,3.38
2022-12-25T23:58:29.248Z,3.37
